createdAt,value
2019-02-26T00:00:26.768Z,100575.44
2019-02-26T00:02:56.279Z,100582.03
2019-02-26T00:05:23.795Z,100581.81
2019-02-26T00:07:53.388Z,100579.63
2019-02-26T00:10:24.608Z,100583.48
2019-02-26T00:12:49.891Z,100587.14
2019-02-26T00:15:16.733Z,100586.18
2019-02-26T00:17:45.887Z,100585.19
2019-02-26T00:20:12.807Z,100590.97
2019-02-26T00:22:44.578Z,100582.29
2019-02-26T00:25:12.906Z,100577.41
2019-02-26T00:27:49.055Z,100580.05
2019-02-26T00:30:16.796Z,100578.61
2019-02-26T00:32:44.915Z,100583.03
2019-02-26T00:35:11.802Z,100580.20
2019-02-26T00:37:38.685Z,100579.41
2019-02-26T00:40:12.338Z,100585.56
2019-02-26T00:42:39.525Z,100584.12
2019-02-26T00:45:10.115Z,100584.22
2019-02-26T00:47:38.709Z,100580.31
2019-02-26T00:50:14.048Z,100592.69
2019-02-26T00:52:41.051Z,100582.69
2019-02-26T00:55:09.492Z,100573.28
2019-02-26T00:57:40.507Z,100570.36
2019-02-26T01:00:16.440Z,100564.07
2019-02-26T01:02:43.202Z,100562.56
2019-02-26T01:05:13.208Z,100571.38
2019-02-26T01:07:42.110Z,100567.20
2019-02-26T01:10:11.706Z,100567.74
2019-02-26T01:12:40.212Z,100565.03
2019-02-26T01:15:14.048Z,100563.10
2019-02-26T01:17:42.205Z,100561.91
2019-02-26T01:20:14.218Z,100554.42
2019-02-26T01:22:42.900Z,100559.65
2019-02-26T01:25:10.205Z,100557.77
2019-02-26T01:27:41.377Z,100553.52
2019-02-26T01:30:18.633Z,100554.03
2019-02-26T01:32:44.300Z,100553.43
2019-02-26T01:35:12.889Z,100553.28
2019-02-26T01:37:39.730Z,100545.29
2019-02-26T01:40:13.823Z,100547.14
2019-02-26T01:42:40.875Z,100540.62
2019-02-26T01:45:11.988Z,100532.64
2019-02-26T01:47:42.598Z,100529.33
2019-02-26T01:50:13.215Z,100525.02
2019-02-26T01:52:40.009Z,100527.48
2019-02-26T01:55:09.424Z,100531.08
2019-02-26T01:57:36.393Z,100528.76
2019-02-26T02:00:13.300Z,100526.14
2019-02-26T03:47:11.865Z,100478.16
2019-02-26T03:49:41.711Z,100469.97
2019-02-26T03:52:07.787Z,100474.42
2019-02-26T03:54:37.245Z,100469.66
2019-02-26T03:57:03.541Z,100478.02
2019-02-26T03:59:31.643Z,100480.03
2019-02-26T04:01:58.531Z,100473.52
2019-02-26T04:04:26.154Z,100462.38
2019-02-26T04:06:55.825Z,100464.94
2019-02-26T04:09:24.830Z,100473.20
2019-02-26T04:11:53.418Z,100471.52
2019-02-26T04:14:26.375Z,100473.46
2019-02-26T04:16:55.224Z,100468.77
2019-02-26T04:19:26.143Z,100463.98
2019-02-26T04:22:27.140Z,100467.61
2019-02-26T04:25:04.984Z,100460.34
2019-02-26T04:28:01.759Z,100464.91
2019-02-26T04:30:58.378Z,100460.47
2019-02-26T04:33:56.801Z,100456.61
2019-02-26T04:36:30.262Z,100448.78
2019-02-26T04:39:34.460Z,100451.05
2019-02-26T04:42:20.343Z,100446.48
2019-02-26T04:45:19.156Z,100449.77
2019-02-26T04:47:59.958Z,100444.20
2019-02-26T04:50:28.990Z,100444.94
2019-02-26T04:52:58.708Z,100443.16
2019-02-26T04:55:29.206Z,100438.59
2019-02-26T04:57:55.741Z,100431.30
2019-02-26T05:00:24.189Z,100432.29
2019-02-26T05:02:52.381Z,100430.11
2019-02-26T05:05:19.136Z,100428.47
2019-02-26T05:07:47.215Z,100428.75
2019-02-26T05:10:15.027Z,100424.66
2019-02-26T05:12:41.816Z,100422.42
2019-02-26T05:15:11.509Z,100425.77
2019-02-26T05:17:38.180Z,100424.36
2019-02-26T05:20:07.287Z,100417.97
2019-02-26T05:22:34.032Z,100414.13
2019-02-26T05:25:01.267Z,100407.64
2019-02-26T05:27:28.464Z,100412.77
2019-02-26T05:29:55.598Z,100419.06
2019-02-26T05:32:25.036Z,100412.70
2019-02-26T05:34:51.483Z,100403.21
2019-02-26T05:37:18.332Z,100403.87
2019-02-26T05:39:46.848Z,100403.81
2019-02-26T05:42:14.319Z,100412.00
2019-02-26T05:44:41.084Z,100414.30
2019-02-26T05:47:08.314Z,100410.47
2019-02-26T05:49:37.742Z,100418.45
2019-02-26T05:52:06.457Z,100419.84
2019-02-26T05:54:32.770Z,100417.36
2019-02-26T05:57:01.897Z,100418.22
2019-02-26T05:59:28.673Z,100420.11
2019-02-26T06:01:58.430Z,100425.11
2019-02-26T06:04:27.487Z,100423.83
2019-02-26T06:06:56.308Z,100425.52
2019-02-26T06:09:25.505Z,100432.73
2019-02-26T06:11:51.848Z,100433.52
2019-02-26T06:14:18.617Z,100440.77
2019-02-26T06:16:47.696Z,100441.14
2019-02-26T06:19:15.802Z,100445.17
2019-02-26T06:21:44.734Z,100446.82
2019-02-26T06:24:11.717Z,100455.28
2019-02-26T06:26:40.818Z,100456.98
2019-02-26T06:29:07.620Z,100458.25
2019-02-26T06:31:34.599Z,100455.19
2019-02-26T06:34:03.823Z,100466.41
2019-02-26T06:36:30.535Z,100469.78
2019-02-26T06:38:58.861Z,100471.70
2019-02-26T06:41:26.763Z,100477.14
2019-02-26T06:43:55.132Z,100480.44
2019-02-26T06:46:22.389Z,100478.48
2019-02-26T06:48:49.277Z,100475.68
2019-02-26T06:51:16.222Z,100477.55
2019-02-26T06:53:45.076Z,100479.81
2019-02-26T06:56:11.804Z,100482.43
2019-02-26T06:58:40.545Z,100481.77
2019-02-26T07:01:12.107Z,100476.40
2019-02-26T07:03:40.877Z,100479.45
2019-02-26T07:06:07.883Z,100481.23
2019-02-26T07:08:34.674Z,100482.64
2019-02-26T07:11:04.129Z,100482.70
2019-02-26T07:13:31.024Z,100486.63
2019-02-26T07:15:58.214Z,100484.73
2019-02-26T07:18:25.146Z,100490.11
2019-02-26T07:20:53.106Z,100493.73
2019-02-26T07:23:20.688Z,100504.45
2019-02-26T07:25:47.627Z,100509.03
2019-02-26T07:28:15.317Z,100510.27
2019-02-26T07:30:44.717Z,100509.83
2019-02-26T07:33:14.970Z,100509.58
2019-02-26T07:35:42.873Z,100518.56
2019-02-26T07:38:09.689Z,100514.46
2019-02-26T07:40:38.633Z,100516.23
2019-02-26T07:43:09.136Z,100517.56
2019-02-26T07:45:34.280Z,100513.88
2019-02-26T07:48:01.222Z,100518.52
2019-02-26T07:50:31.502Z,100515.27
2019-02-26T07:52:59.415Z,100506.20
2019-02-26T07:55:32.219Z,100508.13
2019-02-26T07:57:58.137Z,100511.79
2019-02-26T08:00:24.987Z,100506.67
2019-02-26T08:02:56.457Z,100507.01
2019-02-26T08:05:23.871Z,100512.13
2019-02-26T08:07:53.457Z,100510.80
2019-02-26T08:10:20.628Z,100507.31
2019-02-26T08:12:47.961Z,100505.38
2019-02-26T08:15:15.449Z,100509.28
2019-02-26T08:17:45.644Z,100508.14
2019-02-26T08:20:14.890Z,100509.62
2019-02-26T08:22:42.347Z,100509.20
2019-02-26T08:25:10.629Z,100509.38
2019-02-26T08:27:38.010Z,100502.85
2019-02-26T08:30:12.138Z,100511.01
2019-02-26T08:32:39.350Z,100505.56
2019-02-26T08:35:07.808Z,100499.59
2019-02-26T08:37:35.014Z,100503.22
2019-02-26T08:40:02.410Z,100493.05
2019-02-26T08:42:29.337Z,100492.42
2019-02-26T08:44:58.279Z,100493.50
2019-02-26T08:47:26.254Z,100494.48
2019-02-26T08:49:53.752Z,100486.63
2019-02-26T08:52:22.710Z,100481.58
2019-02-26T08:54:50.028Z,100482.70
2019-02-26T08:57:16.905Z,100483.39
2019-02-26T08:59:45.426Z,100479.89
2019-02-26T09:02:12.434Z,100482.23
2019-02-26T09:04:40.846Z,100483.44
2019-02-26T09:07:09.038Z,100482.94
2019-02-26T09:09:36.237Z,100481.55
2019-02-26T09:12:04.364Z,100479.45
2019-02-26T09:14:34.355Z,100482.38
2019-02-26T09:17:02.139Z,100487.41
2019-02-26T09:19:31.092Z,100486.25
2019-02-26T09:21:59.273Z,100484.64
2019-02-26T09:24:26.344Z,100482.12
2019-02-26T09:26:54.843Z,100484.98
2019-02-26T09:29:28.333Z,100477.48
2019-02-26T09:31:55.243Z,100479.33
2019-02-26T09:34:25.979Z,100474.20
2019-02-26T09:36:52.946Z,100472.43
2019-02-26T09:39:20.276Z,100478.00
2019-02-26T09:41:50.332Z,100483.31
2019-02-26T09:44:17.708Z,100489.00
2019-02-26T09:46:47.468Z,100487.10
2019-02-26T09:49:14.383Z,100484.12
2019-02-26T09:51:41.216Z,100482.78
2019-02-26T09:54:12.793Z,100482.53
2019-02-26T09:56:39.694Z,100477.37
2019-02-26T09:59:09.653Z,100475.20
2019-02-26T10:01:37.842Z,100472.48
2019-02-26T10:04:05.784Z,100471.91
2019-02-26T10:06:32.672Z,100468.05
2019-02-26T10:08:59.679Z,100465.03
2019-02-26T10:11:27.955Z,100462.78
2019-02-26T10:13:55.744Z,100464.64
2019-02-26T10:16:23.922Z,100463.17
2019-02-26T10:18:54.350Z,100465.00
2019-02-26T10:21:21.110Z,100456.11
2019-02-26T10:23:51.451Z,100453.00
2019-02-26T10:26:18.614Z,100443.87
2019-02-26T10:28:56.173Z,100435.78
2019-02-26T10:31:25.036Z,100432.00
2019-02-26T10:33:51.818Z,100433.33
2019-02-26T10:36:20.482Z,100429.87
2019-02-26T10:38:47.854Z,100432.22
2019-02-26T10:41:17.489Z,100437.75
2019-02-26T10:43:44.591Z,100438.33
2019-02-26T10:46:11.621Z,100432.70
2019-02-26T10:48:41.659Z,100436.72
2019-02-26T10:51:09.754Z,100441.84
2019-02-26T10:53:37.289Z,100433.90
2019-02-26T10:56:04.705Z,100435.25
2019-02-26T10:58:31.919Z,100441.09
2019-02-26T11:01:01.580Z,100434.92
2019-02-26T11:03:29.721Z,100439.95
2019-02-26T11:05:56.380Z,100434.84
2019-02-26T11:08:26.203Z,100436.23
2019-02-26T11:10:52.494Z,100433.47
2019-02-26T11:13:20.961Z,100436.72
2019-02-26T11:15:51.651Z,100432.12
2019-02-26T11:18:21.098Z,100432.06
2019-02-26T11:20:50.410Z,100432.75
2019-02-26T11:23:17.661Z,100429.56
2019-02-26T11:25:44.443Z,100425.41
2019-02-26T11:28:13.089Z,100422.98
2019-02-26T11:30:40.466Z,100419.83
2019-02-26T11:33:10.489Z,100420.79
2019-02-26T11:35:39.117Z,100415.36
2019-02-26T11:38:06.657Z,100404.92
2019-02-26T11:40:33.998Z,100414.80
2019-02-26T11:43:10.890Z,100416.95
2019-02-26T11:45:29.661Z,100405.49
2019-02-26T11:48:01.052Z,100397.39
2019-02-26T11:50:28.196Z,100404.18
2019-02-26T11:52:57.095Z,100402.96
2019-02-26T11:55:26.868Z,100399.84
2019-02-26T11:57:55.050Z,100394.39
2019-02-26T12:00:42.819Z,100401.56
2019-02-26T12:03:10.674Z,100393.64
2019-02-26T12:05:41.268Z,100394.30
2019-02-26T12:08:07.695Z,100398.51
2019-02-26T12:10:35.900Z,100388.75
2019-02-26T12:13:03.576Z,100390.36
2019-02-26T12:15:33.462Z,100387.06
2019-02-26T12:18:00.989Z,100384.81
2019-02-26T12:20:28.076Z,100383.69
2019-02-26T12:22:55.458Z,100389.27
2019-02-26T12:25:22.641Z,100384.72
2019-02-26T12:27:52.468Z,100382.18
2019-02-26T12:30:21.130Z,100380.30
2019-02-26T12:32:50.062Z,100378.70
2019-02-26T12:35:17.886Z,100377.32
2019-02-26T12:37:47.187Z,100371.03
2019-02-26T12:40:19.410Z,100373.20
2019-02-26T12:42:46.775Z,100372.21
2019-02-26T12:45:16.066Z,100370.38
2019-02-26T12:47:45.542Z,100365.86
2019-02-26T12:50:26.444Z,100355.83
2019-02-26T12:52:53.860Z,100352.27
2019-02-26T12:55:22.325Z,100356.20
2019-02-26T12:57:49.991Z,100352.86
2019-02-26T13:00:23.174Z,100352.94
2019-02-26T13:02:52.367Z,100341.38
2019-02-26T13:05:22.695Z,100346.27
2019-02-26T13:07:48.048Z,100344.16
2019-02-26T13:10:24.251Z,100341.65
2019-02-26T13:12:55.121Z,100341.80
2019-02-26T13:15:23.407Z,100334.91
2019-02-26T13:17:54.249Z,100337.68
2019-02-26T13:20:24.827Z,100334.52
2019-02-26T13:22:58.701Z,100331.45
2019-02-26T13:25:26.896Z,100338.67
2019-02-26T13:27:51.786Z,100331.33
2019-02-26T13:30:24.891Z,100322.58
2019-02-26T13:32:59.804Z,100317.80
2019-02-26T13:35:22.578Z,100315.80
2019-02-26T13:37:58.723Z,100314.20
2019-02-26T13:40:25.562Z,100315.83
2019-02-26T13:45:23.345Z,100313.41
2019-02-26T13:47:50.174Z,100309.47
2019-02-26T13:50:28.171Z,100296.44
2019-02-26T13:52:55.093Z,100301.30
2019-02-26T13:55:22.362Z,100292.05
2019-02-26T13:57:49.233Z,100294.03
2019-02-26T14:00:19.824Z,100296.70
2019-02-26T14:02:44.905Z,100292.28
2019-02-26T14:05:13.657Z,100284.27
2019-02-26T14:07:41.118Z,100286.67
2019-02-26T14:10:20.243Z,100289.14
2019-02-26T14:12:47.147Z,100282.61
2019-02-26T14:15:21.575Z,100282.72
2019-02-26T14:17:48.731Z,100281.05
2019-02-26T14:20:15.466Z,100278.53
2019-02-26T14:22:42.349Z,100275.03
2019-02-26T14:25:12.057Z,100279.09
2019-02-26T14:27:38.864Z,100273.19
2019-02-26T14:30:16.643Z,100277.37
2019-02-26T14:32:43.719Z,100263.51
2019-02-26T14:35:12.285Z,100264.59
2019-02-26T14:37:39.097Z,100255.67
2019-02-26T14:40:16.386Z,100252.68
2019-02-26T14:42:43.552Z,100247.21
2019-02-26T14:45:19.650Z,100239.75
2019-02-26T14:47:46.869Z,100243.11
2019-02-26T14:50:18.892Z,100236.96
2019-02-26T14:52:46.245Z,100233.06
2019-02-26T14:55:14.667Z,100233.14
2019-02-26T14:57:41.839Z,100232.88
2019-02-26T15:00:18.952Z,100226.41
2019-02-26T15:02:46.248Z,100224.03
2019-02-26T15:05:13.139Z,100222.72
2019-02-26T15:07:42.188Z,100218.90
2019-02-26T15:10:10.605Z,100219.05
2019-02-26T15:12:37.738Z,100216.14
2019-02-26T15:15:13.394Z,100216.30
2019-02-26T15:17:40.605Z,100210.13
2019-02-26T15:20:23.648Z,100212.47
2019-02-26T15:22:50.834Z,100210.48
2019-02-26T15:25:27.655Z,100207.88
2019-02-26T15:28:04.266Z,100202.52
2019-02-26T15:30:23.304Z,100203.16
2019-02-26T15:32:50.622Z,100209.66
2019-02-26T15:35:17.408Z,100197.83
2019-02-26T15:37:44.823Z,100199.38
2019-02-26T15:40:18.174Z,100195.76
2019-02-26T15:42:47.214Z,100190.53
2019-02-26T15:45:24.148Z,100193.66
2019-02-26T15:47:51.754Z,100189.42
2019-02-26T15:50:21.530Z,100185.20
2019-02-26T15:52:52.680Z,100189.94
2019-02-26T15:55:28.721Z,100185.20
2019-02-26T15:57:56.108Z,100186.33
2019-02-26T16:00:24.098Z,100186.37
2019-02-26T16:02:52.103Z,100184.38
2019-02-26T16:05:23.147Z,100182.87
2019-02-26T16:07:49.892Z,100183.17
2019-02-26T16:10:16.982Z,100192.13
2019-02-26T16:12:43.745Z,100184.64
2019-02-26T16:15:16.447Z,100193.77
2019-02-26T16:17:46.309Z,100195.18
2019-02-26T16:20:18.363Z,100200.88
2019-02-26T16:22:45.554Z,100194.47
2019-02-26T16:25:12.395Z,100190.57
2019-02-26T16:27:39.165Z,100186.14
2019-02-26T16:30:19.244Z,100184.69
2019-02-26T16:32:46.126Z,100193.77
2019-02-26T16:35:13.032Z,100188.75
2019-02-26T16:37:41.554Z,100186.84
2019-02-26T16:40:16.559Z,100183.60
2019-02-26T16:42:45.093Z,100187.45
2019-02-26T16:45:27.172Z,100189.74
2019-02-26T16:47:54.221Z,100189.48
2019-02-26T16:50:24.230Z,100188.27
2019-02-26T16:52:51.683Z,100188.41
2019-02-26T16:55:19.266Z,100187.55
2019-02-26T16:57:46.602Z,100197.45
2019-02-26T17:00:26.762Z,100193.91
2019-02-26T17:02:54.385Z,100195.75
2019-02-26T17:05:23.375Z,100200.53
2019-02-26T17:07:50.530Z,100208.41
2019-02-26T17:10:22.064Z,100203.98
2019-02-26T17:12:50.734Z,100203.87
2019-02-26T17:15:31.081Z,100202.34
2019-02-26T17:17:57.862Z,100203.62
2019-02-26T17:20:26.296Z,100204.77
2019-02-26T17:22:53.825Z,100207.95
2019-02-26T17:25:20.969Z,100208.78
2019-02-26T17:27:48.231Z,100211.16
2019-02-26T17:30:16.973Z,100212.31
2019-02-26T17:32:45.073Z,100216.58
2019-02-26T17:35:12.468Z,100221.50
2019-02-26T17:37:41.251Z,100221.51
2019-02-26T17:40:12.627Z,100226.02
2019-02-26T17:42:39.916Z,100224.64
2019-02-26T17:45:12.046Z,100234.56
2019-02-26T17:47:38.832Z,100237.91
2019-02-26T17:50:14.362Z,100243.77
2019-02-26T17:52:41.307Z,100240.52
2019-02-26T17:55:09.499Z,100244.64
2019-02-26T17:57:37.165Z,100245.17
2019-02-26T18:00:18.631Z,100247.71
2019-02-26T18:02:45.513Z,100248.35
2019-02-26T18:05:12.324Z,100253.07
2019-02-26T18:07:39.116Z,100252.00
2019-02-26T18:10:12.894Z,100252.56
2019-02-26T18:12:42.570Z,100244.77
2019-02-26T18:15:10.625Z,100245.39
2019-02-26T18:17:38.457Z,100240.25
2019-02-26T18:20:15.651Z,100242.98
2019-02-26T18:22:42.407Z,100240.31
2019-02-26T18:25:13.169Z,100236.26
2019-02-26T18:27:40.150Z,100230.83
2019-02-26T18:30:27.114Z,100233.56
2019-02-26T18:32:57.379Z,100231.68
2019-02-26T18:35:23.647Z,100234.69
2019-02-26T18:37:51.186Z,100234.93
2019-02-26T18:40:18.363Z,100239.02
2019-02-26T18:42:46.471Z,100236.84
2019-02-26T18:45:27.438Z,100237.10
2019-02-26T18:47:52.482Z,100235.19
2019-02-26T18:50:19.713Z,100234.92
2019-02-26T18:52:46.573Z,100230.86
2019-02-26T18:55:21.304Z,100230.04
2019-02-26T18:57:48.151Z,100231.36
2019-02-26T19:00:18.983Z,100233.80
2019-02-26T19:02:48.289Z,100234.09
2019-02-26T19:05:15.897Z,100242.25
2019-02-26T19:07:47.870Z,100241.97
2019-02-26T19:10:20.882Z,100243.52
2019-02-26T19:12:47.900Z,100237.81
2019-02-26T19:15:21.856Z,100236.73
2019-02-26T19:17:57.065Z,100242.99
2019-02-26T19:20:36.994Z,100239.42
2019-02-26T19:23:03.947Z,100235.88
2019-02-26T19:25:30.921Z,100238.05
2019-02-26T19:27:59.602Z,100238.56
2019-02-26T19:30:29.532Z,100243.44
2019-02-26T19:32:59.475Z,100236.89
2019-02-26T19:35:27.267Z,100243.93
2019-02-26T19:37:59.190Z,100244.76
2019-02-26T19:40:39.089Z,100241.36
2019-02-26T19:43:08.240Z,100244.91
2019-02-26T19:45:35.067Z,100247.34
2019-02-26T19:48:04.769Z,100251.57
2019-02-26T19:50:32.086Z,100255.58
2019-02-26T19:53:02.179Z,100256.94
2019-02-26T19:55:32.799Z,100257.52
2019-02-26T19:58:02.913Z,100261.66
2019-02-26T20:00:28.652Z,100256.20
2019-02-26T20:02:55.465Z,100257.04
2019-02-26T20:05:22.520Z,100255.25
2019-02-26T20:07:49.696Z,100253.05
2019-02-26T20:10:17.741Z,100253.52
2019-02-26T20:12:44.747Z,100246.19
2019-02-26T20:15:13.399Z,100242.17
2019-02-26T20:17:40.946Z,100237.03
2019-02-26T20:20:18.871Z,100243.56
2019-02-26T20:22:46.059Z,100236.83
2019-02-26T20:25:18.387Z,100234.84
2019-02-26T20:27:45.534Z,100232.00
2019-02-26T20:30:19.002Z,100233.11
2019-02-26T20:32:45.907Z,100233.16
2019-02-26T20:35:13.030Z,100226.30
2019-02-26T20:37:40.190Z,100230.64
2019-02-26T20:40:16.940Z,100226.53
2019-02-26T20:42:44.998Z,100227.55
2019-02-26T20:45:18.117Z,100225.78
2019-02-26T20:47:46.367Z,100226.58
2019-02-26T20:50:13.347Z,100226.86
2019-02-26T20:52:40.128Z,100221.48
2019-02-26T20:55:16.682Z,100224.09
2019-02-26T20:57:43.773Z,100227.51
2019-02-26T21:00:14.656Z,100222.00
2019-02-26T21:02:41.611Z,100222.74
2019-02-26T21:05:10.333Z,100225.27
2019-02-26T21:07:37.152Z,100223.84
2019-02-26T21:10:08.646Z,100233.41
2019-02-26T21:12:35.409Z,100228.50
2019-02-26T21:15:06.524Z,100223.24
2019-02-26T21:17:33.291Z,100224.51
2019-02-26T21:20:00.520Z,100224.57
2019-02-26T21:22:27.514Z,100224.84
2019-02-26T21:24:54.468Z,100232.05
2019-02-26T21:27:21.258Z,100218.95
2019-02-26T21:29:48.146Z,100218.23
2019-02-26T21:32:15.108Z,100218.52
2019-02-26T21:34:42.951Z,100221.78
2019-02-26T21:37:10.031Z,100218.96
2019-02-26T21:39:36.825Z,100216.55
2019-02-26T21:42:03.740Z,100226.04
2019-02-26T21:44:30.501Z,100224.19
2019-02-26T21:46:57.256Z,100217.64
2019-02-26T21:49:24.025Z,100218.00
2019-02-26T21:51:51.044Z,100215.25
2019-02-26T21:54:17.852Z,100217.42
2019-02-26T21:56:48.682Z,100212.04
2019-02-26T21:59:15.155Z,100218.56
2019-02-26T22:01:45.893Z,100215.20
2019-02-26T22:04:11.110Z,100218.84
2019-02-26T22:06:39.907Z,100214.34
2019-02-26T22:09:06.595Z,100218.41
2019-02-26T22:11:33.555Z,100215.64
2019-02-26T22:14:02.944Z,100215.70
2019-02-26T22:16:29.535Z,100213.94
2019-02-26T22:18:56.295Z,100210.09
2019-02-26T22:21:23.098Z,100213.00
2019-02-26T22:23:50.219Z,100209.89
2019-02-26T22:26:16.999Z,100209.52
2019-02-26T22:28:43.907Z,100207.18
2019-02-26T22:31:11.155Z,100212.02
2019-02-26T22:33:40.719Z,100208.95
2019-02-26T22:36:07.138Z,100204.06
2019-02-26T22:38:33.931Z,100208.58
2019-02-26T22:41:02.308Z,100205.33
2019-02-26T22:43:29.543Z,100202.84
2019-02-26T22:46:00.793Z,100198.98
2019-02-26T22:48:46.802Z,100198.82
2019-02-26T22:51:13.226Z,100197.39
2019-02-26T22:53:41.902Z,100195.38
2019-02-26T22:56:08.664Z,100193.71
2019-02-26T22:58:36.287Z,100186.67
2019-02-26T23:01:11.876Z,100193.16
2019-02-26T23:03:38.768Z,100193.05
2019-02-26T23:06:05.733Z,100191.39
2019-02-26T23:08:32.996Z,100193.16
2019-02-26T23:10:59.732Z,100194.77
2019-02-26T23:13:31.474Z,100195.27
2019-02-26T23:15:55.956Z,100198.30
2019-02-26T23:18:23.136Z,100200.55
2019-02-26T23:20:49.875Z,100205.66
2019-02-26T23:23:16.748Z,100209.91
2019-02-26T23:25:43.533Z,100202.58
2019-02-26T23:28:10.286Z,100202.25
2019-02-26T23:30:37.334Z,100209.95
2019-02-26T23:33:05.655Z,100207.01
2019-02-26T23:35:32.455Z,100202.48
2019-02-26T23:37:59.201Z,100211.23
2019-02-26T23:40:27.407Z,100211.45
2019-02-26T23:42:54.635Z,100207.27
2019-02-26T23:45:23.945Z,100205.52
2019-02-26T23:47:50.131Z,100211.56
2019-02-26T23:50:17.035Z,100209.20
2019-02-26T23:52:43.778Z,100211.53
2019-02-26T23:55:13.367Z,100204.36
2019-02-26T23:57:39.749Z,100203.13
